Pagrindinis puslapis
METAR-TAF:

METAR-TAF

Oro uostai :

Tirana, Albanija

platuma: 41-20N, ilguma: 019-47E, Aukštis: 89 m

Dabartinis oras

Ataskaita buvo paskelbta 25 minutes, ne 01:20 UTC
Vėjas 3 kt iš Pietų/Pietryčių
Temperatūra 13°C
Drėgmė 88%
Slėgis 1012 hPa
Matomumas 10 km arba daugiau
Išsisklaidę debesys ne aukštis 4500 ft

METAR: LATI 010120Z 15003KT 9999 SCT045 13/11 Q1012 NOSIG

Laikas: 03:45 (01:45 UTC)

Prognozė

Ataskaita buvo paskelbta 2 valandos ir 45 minutes, ne 23:00 UTC
Prognozė galioja nuo 01 metu 00 UTC su 01 metu 24 UTC
Vėjas 4 kt nuo kintamojo kryptimis
Matomumas 10 km arba daugiau
nėra debesų žemiau 1500 m ir nėra kamuolinių lietaus debesų
Tikimybė 40% :
Laikinai
nuo 01 metu 00 UTC su 01 metu 05 UTC
Matomumas: 3000 m
rūkana
Laikinai
nuo 01 metu 11 UTC su 01 metu 16 UTC
Vėjas 12 kt iš Pietų
Išsisklaidę debesys ne aukštis 3000 ft, aukštai iškilę kamuoliniai debesys.

TAF: LATI 302300Z 0100/0124 VRB04KT CAVOK TX24/0112Z TN11/0104Z PROB40 TEMPO 0100/0105 3000 BR NSC TEMPO 0111/0116 18012KT SCT030TCU

Orai ataskaitas ir orų prognozės (METAR, TAF).

turimą stotys yra geltonos ir raudonos taškus žemėlapyje.

Perkelti pele per norėdami pamatyti stoties vardą.

Tada spustelėkite, norėdami matyti oro stebėjimo ir prognozės.

Norėdami pakeisti žemėlapį: spustelėkite ant žalios mygtukų su juodo kryžiaus žemyn,; žalią mygtuką su brūkšneliu, jei norite nutolinti; arba žalių rodyklių gretimoms žemėlapius.


METAR-TAF: